sensor_id;sensor_type;location;lat;lon;timestamp;P1;durP1;ratioP1;P2;durP2;ratioP2
43146;SDS011;28752;48.266;7.402;2022-08-01T00:01:30;6.80;;;4.50;;
43146;SDS011;28752;48.266;7.402;2022-08-01T00:03:56;6.15;;;4.50;;
43146;SDS011;28752;48.266;7.402;2022-08-01T00:06:21;5.85;;;4.32;;
43146;SDS011;28752;48.266;7.402;2022-08-01T00:08:47;7.57;;;4.20;;
43146;SDS011;28752;48.266;7.402;2022-08-01T00:11:12;5.28;;;4.15;;
43146;SDS011;28752;48.266;7.402;2022-08-01T00:13:38;6.60;;;4.47;;
43146;SDS011;28752;48.266;7.402;2022-08-01T00:16:04;6.93;;;4.40;;
43146;SDS011;28752;48.266;7.402;2022-08-01T00:18:29;8.77;;;4.60;;
43146;SDS011;28752;48.266;7.402;2022-08-01T00:20:55;5.32;;;4.35;;
43146;SDS011;28752;48.266;7.402;2022-08-01T00:23:20;5.95;;;4.38;;
43146;SDS011;28752;48.266;7.402;2022-08-01T00:25:45;6.15;;;4.80;;
43146;SDS011;28752;48.266;7.402;2022-08-01T00:28:11;7.80;;;4.53;;
43146;SDS011;28752;48.266;7.402;2022-08-01T00:30:38;5.20;;;4.20;;
43146;SDS011;28752;48.266;7.402;2022-08-01T00:33:03;5.50;;;4.15;;
43146;SDS011;28752;48.266;7.402;2022-08-01T00:35:29;5.95;;;4.78;;
43146;SDS011;28752;48.266;7.402;2022-08-01T00:37:54;6.25;;;4.50;;
43146;SDS011;28752;48.266;7.402;2022-08-01T00:40:20;5.63;;;3.97;;
43146;SDS011;28752;48.266;7.402;2022-08-01T00:42:45;5.32;;;3.92;;
43146;SDS011;28752;48.266;7.402;2022-08-01T00:45:11;5.60;;;4.32;;
43146;SDS011;28752;48.266;7.402;2022-08-01T00:47:37;5.35;;;4.00;;
43146;SDS011;28752;48.266;7.402;2022-08-01T00:50:03;5.47;;;4.25;;
43146;SDS011;28752;48.266;7.402;2022-08-01T00:52:29;5.35;;;4.10;;
43146;SDS011;28752;48.266;7.402;2022-08-01T00:54:55;5.90;;;4.15;;
43146;SDS011;28752;48.266;7.402;2022-08-01T00:57:21;6.35;;;4.55;;
43146;SDS011;28752;48.266;7.402;2022-08-01T00:59:46;6.65;;;4.47;;
43146;SDS011;28752;48.266;7.402;2022-08-01T01:04:37;5.43;;;4.25;;
43146;SDS011;28752;48.266;7.402;2022-08-01T01:09:57;6.70;;;4.38;;
43146;SDS011;28752;48.266;7.402;2022-08-01T01:17:50;6.22;;;4.15;;
43146;SDS011;28752;48.266;7.402;2022-08-01T01:20:20;5.95;;;4.18;;
43146;SDS011;28752;48.266;7.402;2022-08-01T01:25:39;5.82;;;4.30;;
43146;SDS011;28752;48.266;7.402;2022-08-01T01:28:34;6.45;;;4.28;;
43146;SDS011;28752;48.266;7.402;2022-08-01T01:31:09;6.70;;;4.38;;
43146;SDS011;28752;48.266;7.402;2022-08-01T01:33:37;6.55;;;4.22;;
43146;SDS011;28752;48.266;7.402;2022-08-01T01:36:05;6.50;;;4.50;;
43146;SDS011;28752;48.266;7.402;2022-08-01T01:38:42;7.63;;;4.53;;
43146;SDS011;28752;48.266;7.402;2022-08-01T01:41:12;5.82;;;4.47;;
43146;SDS011;28752;48.266;7.402;2022-08-01T01:43:40;6.78;;;4.40;;
43146;SDS011;28752;48.266;7.402;2022-08-01T01:46:07;6.47;;;4.55;;
43146;SDS011;28752;48.266;7.402;2022-08-01T01:48:35;5.88;;;4.30;;
43146;SDS011;28752;48.266;7.402;2022-08-01T01:51:03;5.93;;;4.00;;
43146;SDS011;28752;48.266;7.402;2022-08-01T01:53:29;6.95;;;5.03;;
43146;SDS011;28752;48.266;7.402;2022-08-01T01:55:58;6.32;;;4.40;;
43146;SDS011;28752;48.266;7.402;2022-08-01T01:58:25;7.55;;;4.97;;
43146;SDS011;28752;48.266;7.402;2022-08-01T02:00:53;7.15;;;4.50;;
43146;SDS011;28752;48.266;7.402;2022-08-01T02:03:21;7.57;;;4.78;;
43146;SDS011;28752;48.266;7.402;2022-08-01T02:05:49;6.20;;;4.53;;
43146;SDS011;28752;48.266;7.402;2022-08-01T02:08:17;6.85;;;4.47;;
43146;SDS011;28752;48.266;7.402;2022-08-01T02:10:43;5.38;;;4.20;;
43146;SDS011;28752;48.266;7.402;2022-08-01T02:13:33;6.60;;;4.53;;
43146;SDS011;28752;48.266;7.402;2022-08-01T02:16:01;6.53;;;4.63;;
43146;SDS011;28752;48.266;7.402;2022-08-01T02:18:28;6.72;;;4.50;;
43146;SDS011;28752;48.266;7.402;2022-08-01T02:20:54;7.40;;;4.90;;
43146;SDS011;28752;48.266;7.402;2022-08-01T02:23:21;6.95;;;4.45;;
43146;SDS011;28752;48.266;7.402;2022-08-01T02:25:49;5.90;;;4.38;;
43146;SDS011;28752;48.266;7.402;2022-08-01T02:28:17;6.55;;;5.07;;
43146;SDS011;28752;48.266;7.402;2022-08-01T02:30:53;6.63;;;4.47;;
43146;SDS011;28752;48.266;7.402;2022-08-01T02:33:23;6.95;;;5.13;;
43146;SDS011;28752;48.266;7.402;2022-08-01T02:35:52;7.05;;;4.82;;
43146;SDS011;28752;48.266;7.402;2022-08-01T02:38:24;7.50;;;4.57;;
43146;SDS011;28752;48.266;7.402;2022-08-01T02:40:54;6.53;;;4.90;;
43146;SDS011;28752;48.266;7.402;2022-08-01T02:43:23;6.75;;;4.95;;
43146;SDS011;28752;48.266;7.402;2022-08-01T02:45:52;6.28;;;4.57;;
43146;SDS011;28752;48.266;7.402;2022-08-01T02:48:21;6.13;;;4.80;;
43146;SDS011;28752;48.266;7.402;2022-08-01T02:50:51;5.93;;;4.97;;
43146;SDS011;28752;48.266;7.402;2022-08-01T02:53:19;6.15;;;4.82;;
43146;SDS011;28752;48.266;7.402;2022-08-01T02:55:47;6.70;;;4.50;;
43146;SDS011;28752;48.266;7.402;2022-08-01T02:58:15;6.68;;;4.95;;
43146;SDS011;28752;48.266;7.402;2022-08-01T03:00:43;7.30;;;5.20;;
43146;SDS011;28752;48.266;7.402;2022-08-01T03:03:10;7.13;;;5.35;;
43146;SDS011;28752;48.266;7.402;2022-08-01T03:05:38;7.10;;;5.00;;
43146;SDS011;28752;48.266;7.402;2022-08-01T03:08:05;7.47;;;4.82;;
43146;SDS011;28752;48.266;7.402;2022-08-01T03:10:33;5.80;;;4.80;;
43146;SDS011;28752;48.266;7.402;2022-08-01T03:13:01;7.80;;;4.93;;
43146;SDS011;28752;48.266;7.402;2022-08-01T03:15:30;7.45;;;4.82;;
43146;SDS011;28752;48.266;7.402;2022-08-01T03:17:57;7.00;;;4.57;;
43146;SDS011;28752;48.266;7.402;2022-08-01T03:20:26;8.18;;;4.80;;
43146;SDS011;28752;48.266;7.402;2022-08-01T03:22:53;6.68;;;4.82;;
43146;SDS011;28752;48.266;7.402;2022-08-01T03:25:19;5.88;;;4.65;;
43146;SDS011;28752;48.266;7.402;2022-08-01T03:27:47;6.13;;;4.68;;
43146;SDS011;28752;48.266;7.402;2022-08-01T03:30:19;6.65;;;5.20;;
43146;SDS011;28752;48.266;7.402;2022-08-01T03:32:46;7.43;;;5.05;;
43146;SDS011;28752;48.266;7.402;2022-08-01T03:35:11;5.93;;;4.38;;
43146;SDS011;28752;48.266;7.402;2022-08-01T03:37:44;7.15;;;4.68;;
43146;SDS011;28752;48.266;7.402;2022-08-01T03:40:13;6.07;;;4.85;;
43146;SDS011;28752;48.266;7.402;2022-08-01T03:42:47;7.60;;;5.20;;
43146;SDS011;28752;48.266;7.402;2022-08-01T03:45:21;8.25;;;5.30;;
43146;SDS011;28752;48.266;7.402;2022-08-01T03:47:49;6.50;;;4.88;;
43146;SDS011;28752;48.266;7.402;2022-08-01T03:50:19;6.63;;;5.20;;
43146;SDS011;28752;48.266;7.402;2022-08-01T03:52:47;8.13;;;5.90;;
43146;SDS011;28752;48.266;7.402;2022-08-01T03:55:15;7.28;;;5.13;;
43146;SDS011;28752;48.266;7.402;2022-08-01T03:57:43;6.55;;;4.47;;
43146;SDS011;28752;48.266;7.402;2022-08-01T04:00:10;6.72;;;5.10;;
43146;SDS011;28752;48.266;7.402;2022-08-01T04:02:36;6.80;;;4.72;;
43146;SDS011;28752;48.266;7.402;2022-08-01T04:05:03;7.25;;;4.88;;
43146;SDS011;28752;48.266;7.402;2022-08-01T04:07:32;7.90;;;5.18;;
43146;SDS011;28752;48.266;7.402;2022-08-01T04:10:00;8.07;;;5.47;;
43146;SDS011;28752;48.266;7.402;2022-08-01T04:12:26;7.93;;;5.10;;
43146;SDS011;28752;48.266;7.402;2022-08-01T04:14:52;8.80;;;5.43;;
43146;SDS011;28752;48.266;7.402;2022-08-01T04:17:17;7.28;;;5.60;;
43146;SDS011;28752;48.266;7.402;2022-08-01T04:19:43;7.03;;;5.35;;
43146;SDS011;28752;48.266;7.402;2022-08-01T04:22:10;6.68;;;5.13;;
43146;SDS011;28752;48.266;7.402;2022-08-01T04:24:38;7.93;;;5.25;;
43146;SDS011;28752;48.266;7.402;2022-08-01T04:27:06;11.40;;;5.80;;
43146;SDS011;28752;48.266;7.402;2022-08-01T04:29:35;7.05;;;5.15;;
43146;SDS011;28752;48.266;7.402;2022-08-01T04:32:02;8.27;;;5.50;;
43146;SDS011;28752;48.266;7.402;2022-08-01T04:34:28;7.10;;;5.25;;
43146;SDS011;28752;48.266;7.402;2022-08-01T04:36:57;7.40;;;5.47;;
43146;SDS011;28752;48.266;7.402;2022-08-01T04:41:52;7.82;;;5.60;;
43146;SDS011;28752;48.266;7.402;2022-08-01T04:44:22;7.60;;;5.43;;
43146;SDS011;28752;48.266;7.402;2022-08-01T04:46:48;7.00;;;5.47;;
43146;SDS011;28752;48.266;7.402;2022-08-01T04:49:15;8.05;;;5.28;;
43146;SDS011;28752;48.266;7.402;2022-08-01T04:51:54;8.10;;;5.68;;
43146;SDS011;28752;48.266;7.402;2022-08-01T04:54:28;7.47;;;5.82;;
43146;SDS011;28752;48.266;7.402;2022-08-01T04:56:59;8.13;;;5.32;;
43146;SDS011;28752;48.266;7.402;2022-08-01T04:59:34;6.88;;;5.50;;
43146;SDS011;28752;48.266;7.402;2022-08-01T05:02:05;8.25;;;5.88;;
43146;SDS011;28752;48.266;7.402;2022-08-01T05:04:41;8.18;;;5.55;;
43146;SDS011;28752;48.266;7.402;2022-08-01T05:07:08;6.45;;;5.22;;
43146;SDS011;28752;48.266;7.402;2022-08-01T05:12:01;7.25;;;5.30;;
43146;SDS011;28752;48.266;7.402;2022-08-01T05:14:28;6.38;;;4.95;;
43146;SDS011;28752;48.266;7.402;2022-08-01T05:16:57;7.93;;;5.30;;
43146;SDS011;28752;48.266;7.402;2022-08-01T05:19:23;6.90;;;5.40;;
43146;SDS011;28752;48.266;7.402;2022-08-01T05:21:49;6.82;;;5.10;;
43146;SDS011;28752;48.266;7.402;2022-08-01T05:24:14;6.67;;;4.80;;
43146;SDS011;28752;48.266;7.402;2022-08-01T05:26:40;7.15;;;5.47;;
43146;SDS011;28752;48.266;7.402;2022-08-01T05:29:05;7.20;;;5.27;;
43146;SDS011;28752;48.266;7.402;2022-08-01T05:31:30;8.33;;;5.33;;
43146;SDS011;28752;48.266;7.402;2022-08-01T05:33:59;7.30;;;5.55;;
43146;SDS011;28752;48.266;7.402;2022-08-01T05:36:25;7.53;;;5.30;;
43146;SDS011;28752;48.266;7.402;2022-08-01T05:38:51;8.80;;;5.38;;
43146;SDS011;28752;48.266;7.402;2022-08-01T05:41:16;7.60;;;5.38;;
43146;SDS011;28752;48.266;7.402;2022-08-01T05:43:42;7.53;;;5.40;;
43146;SDS011;28752;48.266;7.402;2022-08-01T05:46:07;6.60;;;4.80;;
43146;SDS011;28752;48.266;7.402;2022-08-01T05:48:32;6.13;;;4.72;;
43146;SDS011;28752;48.266;7.402;2022-08-01T05:50:58;7.93;;;4.88;;
43146;SDS011;28752;48.266;7.402;2022-08-01T05:53:23;8.15;;;5.13;;
43146;SDS011;28752;48.266;7.402;2022-08-01T05:55:49;8.13;;;5.40;;
43146;SDS011;28752;48.266;7.402;2022-08-01T05:58:14;7.70;;;4.80;;
43146;SDS011;28752;48.266;7.402;2022-08-01T06:00:40;6.63;;;4.90;;
43146;SDS011;28752;48.266;7.402;2022-08-01T06:03:05;8.18;;;5.00;;
43146;SDS011;28752;48.266;7.402;2022-08-01T06:05:31;8.02;;;5.03;;
43146;SDS011;28752;48.266;7.402;2022-08-01T06:07:56;7.88;;;4.93;;
43146;SDS011;28752;48.266;7.402;2022-08-01T06:10:23;7.03;;;4.22;;
43146;SDS011;28752;48.266;7.402;2022-08-01T06:12:48;7.15;;;4.72;;
43146;SDS011;28752;48.266;7.402;2022-08-01T06:15:13;7.88;;;4.80;;
43146;SDS011;28752;48.266;7.402;2022-08-01T06:17:39;7.28;;;4.10;;
43146;SDS011;28752;48.266;7.402;2022-08-01T06:20:06;6.45;;;4.20;;
43146;SDS011;28752;48.266;7.402;2022-08-01T06:22:32;5.60;;;4.28;;
43146;SDS011;28752;48.266;7.402;2022-08-01T06:27:24;7.47;;;4.82;;
43146;SDS011;28752;48.266;7.402;2022-08-01T06:29:52;6.13;;;4.18;;
43146;SDS011;28752;48.266;7.402;2022-08-01T06:32:21;6.78;;;4.30;;
43146;SDS011;28752;48.266;7.402;2022-08-01T06:34:48;7.30;;;4.20;;
43146;SDS011;28752;48.266;7.402;2022-08-01T06:37:13;6.05;;;3.72;;
43146;SDS011;28752;48.266;7.402;2022-08-01T06:39:39;4.80;;;3.97;;
43146;SDS011;28752;48.266;7.402;2022-08-01T06:42:05;7.65;;;3.65;;
43146;SDS011;28752;48.266;7.402;2022-08-01T06:44:30;6.03;;;3.58;;
43146;SDS011;28752;48.266;7.402;2022-08-01T06:46:55;5.07;;;3.03;;
43146;SDS011;28752;48.266;7.402;2022-08-01T06:49:23;5.07;;;3.08;;
43146;SDS011;28752;48.266;7.402;2022-08-01T06:51:49;5.32;;;3.33;;
43146;SDS011;28752;48.266;7.402;2022-08-01T06:54:14;4.43;;;2.92;;
43146;SDS011;28752;48.266;7.402;2022-08-01T06:56:41;4.20;;;2.95;;
43146;SDS011;28752;48.266;7.402;2022-08-01T06:59:06;4.78;;;2.85;;
43146;SDS011;28752;48.266;7.402;2022-08-01T07:01:32;4.28;;;2.67;;
43146;SDS011;28752;48.266;7.402;2022-08-01T07:03:57;5.32;;;2.50;;
43146;SDS011;28752;48.266;7.402;2022-08-01T07:06:23;5.35;;;2.70;;
43146;SDS011;28752;48.266;7.402;2022-08-01T07:08:49;4.75;;;2.83;;
43146;SDS011;28752;48.266;7.402;2022-08-01T07:11:15;3.92;;;2.55;;
43146;SDS011;28752;48.266;7.402;2022-08-01T07:13:40;6.53;;;2.60;;
43146;SDS011;28752;48.266;7.402;2022-08-01T07:16:06;4.82;;;2.90;;
43146;SDS011;28752;48.266;7.402;2022-08-01T07:18:31;4.43;;;2.50;;
43146;SDS011;28752;48.266;7.402;2022-08-01T07:20:57;4.07;;;2.30;;
43146;SDS011;28752;48.266;7.402;2022-08-01T07:23:22;3.60;;;2.30;;
43146;SDS011;28752;48.266;7.402;2022-08-01T07:25:48;4.38;;;2.70;;
43146;SDS011;28752;48.266;7.402;2022-08-01T07:28:14;3.30;;;2.30;;
43146;SDS011;28752;48.266;7.402;2022-08-01T07:30:40;4.72;;;2.22;;
43146;SDS011;28752;48.266;7.402;2022-08-01T07:33:07;3.78;;;2.47;;
43146;SDS011;28752;48.266;7.402;2022-08-01T07:35:32;3.38;;;2.30;;
43146;SDS011;28752;48.266;7.402;2022-08-01T07:37:58;3.85;;;2.50;;
43146;SDS011;28752;48.266;7.402;2022-08-01T07:40:23;3.75;;;2.60;;
43146;SDS011;28752;48.266;7.402;2022-08-01T07:42:49;4.15;;;2.42;;
43146;SDS011;28752;48.266;7.402;2022-08-01T07:45:14;4.00;;;2.63;;
43146;SDS011;28752;48.266;7.402;2022-08-01T07:47:40;3.58;;;2.60;;
43146;SDS011;28752;48.266;7.402;2022-08-01T07:50:06;4.70;;;2.65;;
43146;SDS011;28752;48.266;7.402;2022-08-01T07:52:32;4.35;;;2.45;;
43146;SDS011;28752;48.266;7.402;2022-08-01T07:54:58;4.40;;;2.80;;
43146;SDS011;28752;48.266;7.402;2022-08-01T07:57:24;5.45;;;2.72;;
43146;SDS011;28752;48.266;7.402;2022-08-01T07:59:49;6.75;;;2.83;;
43146;SDS011;28752;48.266;7.402;2022-08-01T08:02:15;5.85;;;2.65;;
43146;SDS011;28752;48.266;7.402;2022-08-01T08:04:41;6.07;;;2.80;;
43146;SDS011;28752;48.266;7.402;2022-08-01T08:07:06;5.90;;;3.15;;
43146;SDS011;28752;48.266;7.402;2022-08-01T08:09:32;5.18;;;3.10;;
43146;SDS011;28752;48.266;7.402;2022-08-01T08:11:57;4.85;;;3.47;;
43146;SDS011;28752;48.266;7.402;2022-08-01T08:14:23;7.32;;;3.22;;
43146;SDS011;28752;48.266;7.402;2022-08-01T08:16:49;6.25;;;3.40;;
43146;SDS011;28752;48.266;7.402;2022-08-01T08:19:15;5.70;;;3.10;;
43146;SDS011;28752;48.266;7.402;2022-08-01T08:21:40;4.80;;;3.30;;
43146;SDS011;28752;48.266;7.402;2022-08-01T08:24:06;6.18;;;3.33;;
43146;SDS011;28752;48.266;7.402;2022-08-01T08:26:45;4.68;;;3.15;;
43146;SDS011;28752;48.266;7.402;2022-08-01T08:29:14;5.03;;;3.47;;
43146;SDS011;28752;48.266;7.402;2022-08-01T08:31:40;5.25;;;3.53;;
43146;SDS011;28752;48.266;7.402;2022-08-01T08:34:05;6.15;;;3.70;;
43146;SDS011;28752;48.266;7.402;2022-08-01T08:36:31;5.75;;;3.50;;
43146;SDS011;28752;48.266;7.402;2022-08-01T08:38:57;4.78;;;3.50;;
43146;SDS011;28752;48.266;7.402;2022-08-01T08:41:25;4.72;;;3.17;;
43146;SDS011;28752;48.266;7.402;2022-08-01T08:43:50;4.75;;;3.15;;
43146;SDS011;28752;48.266;7.402;2022-08-01T08:46:16;4.70;;;3.25;;
43146;SDS011;28752;48.266;7.402;2022-08-01T08:48:42;5.75;;;3.10;;
43146;SDS011;28752;48.266;7.402;2022-08-01T08:51:10;5.32;;;3.38;;
43146;SDS011;28752;48.266;7.402;2022-08-01T08:53:36;5.47;;;3.30;;
43146;SDS011;28752;48.266;7.402;2022-08-01T08:56:08;4.95;;;3.40;;
43146;SDS011;28752;48.266;7.402;2022-08-01T08:58:35;4.60;;;3.10;;
43146;SDS011;28752;48.266;7.402;2022-08-01T09:01:04;4.75;;;3.17;;
43146;SDS011;28752;48.266;7.402;2022-08-01T09:03:32;4.90;;;3.50;;
43146;SDS011;28752;48.266;7.402;2022-08-01T09:05:58;4.45;;;3.25;;
43146;SDS011;28752;48.266;7.402;2022-08-01T09:08:23;4.57;;;3.38;;
43146;SDS011;28752;48.266;7.402;2022-08-01T09:10:49;5.57;;;3.45;;
43146;SDS011;28752;48.266;7.402;2022-08-01T09:13:14;4.72;;;3.20;;
43146;SDS011;28752;48.266;7.402;2022-08-01T09:15:44;4.40;;;3.40;;
43146;SDS011;28752;48.266;7.402;2022-08-01T09:18:28;5.03;;;3.63;;
43146;SDS011;28752;48.266;7.402;2022-08-01T09:23:40;5.18;;;3.40;;
43146;SDS011;28752;48.266;7.402;2022-08-01T09:26:10;6.20;;;3.13;;
43146;SDS011;28752;48.266;7.402;2022-08-01T09:28:40;4.50;;;3.20;;
43146;SDS011;28752;48.266;7.402;2022-08-01T09:31:10;5.85;;;3.40;;
43146;SDS011;28752;48.266;7.402;2022-08-01T09:33:46;5.03;;;3.45;;
43146;SDS011;28752;48.266;7.402;2022-08-01T09:36:15;6.30;;;3.05;;
43146;SDS011;28752;48.266;7.402;2022-08-01T09:38:41;5.47;;;3.47;;
43146;SDS011;28752;48.266;7.402;2022-08-01T09:41:07;6.72;;;3.47;;
43146;SDS011;28752;48.266;7.402;2022-08-01T09:43:32;5.35;;;3.25;;
43146;SDS011;28752;48.266;7.402;2022-08-01T09:45:58;4.72;;;3.38;;
43146;SDS011;28752;48.266;7.402;2022-08-01T09:48:25;5.07;;;3.38;;
43146;SDS011;28752;48.266;7.402;2022-08-01T09:50:52;4.82;;;3.33;;
43146;SDS011;28752;48.266;7.402;2022-08-01T09:53:18;13.15;;;4.20;;
43146;SDS011;28752;48.266;7.402;2022-08-01T09:55:44;7.00;;;3.80;;
43146;SDS011;28752;48.266;7.402;2022-08-01T09:58:10;4.75;;;3.20;;
43146;SDS011;28752;48.266;7.402;2022-08-01T10:00:36;5.65;;;3.55;;
43146;SDS011;28752;48.266;7.402;2022-08-01T10:03:19;4.95;;;3.63;;
43146;SDS011;28752;48.266;7.402;2022-08-01T10:05:44;5.20;;;3.60;;
43146;SDS011;28752;48.266;7.402;2022-08-01T10:08:10;4.53;;;3.47;;
43146;SDS011;28752;48.266;7.402;2022-08-01T10:10:37;8.40;;;3.80;;
43146;SDS011;28752;48.266;7.402;2022-08-01T10:13:03;5.22;;;3.78;;
43146;SDS011;28752;48.266;7.402;2022-08-01T10:15:29;6.65;;;3.53;;
43146;SDS011;28752;48.266;7.402;2022-08-01T10:17:57;5.55;;;3.22;;
43146;SDS011;28752;48.266;7.402;2022-08-01T10:20:25;5.40;;;3.75;;
43146;SDS011;28752;48.266;7.402;2022-08-01T10:22:53;4.40;;;3.10;;
43146;SDS011;28752;48.266;7.402;2022-08-01T10:25:20;4.43;;;3.40;;
43146;SDS011;28752;48.266;7.402;2022-08-01T10:27:48;5.65;;;3.47;;
43146;SDS011;28752;48.266;7.402;2022-08-01T10:30:15;5.25;;;3.70;;
43146;SDS011;28752;48.266;7.402;2022-08-01T10:32:41;4.53;;;3.30;;
43146;SDS011;28752;48.266;7.402;2022-08-01T10:35:08;5.32;;;3.38;;
43146;SDS011;28752;48.266;7.402;2022-08-01T10:37:34;5.00;;;3.22;;
43146;SDS011;28752;48.266;7.402;2022-08-01T10:40:00;4.95;;;3.08;;
43146;SDS011;28752;48.266;7.402;2022-08-01T10:42:26;4.63;;;3.45;;
43146;SDS011;28752;48.266;7.402;2022-08-01T10:44:52;4.53;;;3.42;;
43146;SDS011;28752;48.266;7.402;2022-08-01T10:47:31;4.72;;;3.42;;
43146;SDS011;28752;48.266;7.402;2022-08-01T10:52:38;5.95;;;3.80;;
43146;SDS011;28752;48.266;7.402;2022-08-01T10:55:04;6.18;;;3.28;;
43146;SDS011;28752;48.266;7.402;2022-08-01T10:57:44;6.25;;;3.35;;
43146;SDS011;28752;48.266;7.402;2022-08-01T11:00:20;4.78;;;3.78;;
43146;SDS011;28752;48.266;7.402;2022-08-01T11:03:07;4.50;;;3.38;;
43146;SDS011;28752;48.266;7.402;2022-08-01T11:05:33;4.40;;;3.25;;
43146;SDS011;28752;48.266;7.402;2022-08-01T11:08:03;6.93;;;3.60;;
43146;SDS011;28752;48.266;7.402;2022-08-01T11:10:38;5.20;;;3.42;;
43146;SDS011;28752;48.266;7.402;2022-08-01T11:13:10;5.47;;;3.40;;
43146;SDS011;28752;48.266;7.402;2022-08-01T11:15:37;6.78;;;3.50;;
43146;SDS011;28752;48.266;7.402;2022-08-01T11:18:04;5.03;;;3.75;;
43146;SDS011;28752;48.266;7.402;2022-08-01T11:20:55;6.35;;;3.97;;
43146;SDS011;28752;48.266;7.402;2022-08-01T11:23:24;7.18;;;3.78;;
43146;SDS011;28752;48.266;7.402;2022-08-01T11:28:22;4.45;;;3.20;;
43146;SDS011;28752;48.266;7.402;2022-08-01T11:30:50;5.18;;;3.20;;
43146;SDS011;28752;48.266;7.402;2022-08-01T11:38:38;4.57;;;3.42;;
43146;SDS011;28752;48.266;7.402;2022-08-01T11:41:25;6.03;;;3.50;;
43146;SDS011;28752;48.266;7.402;2022-08-01T11:43:57;4.68;;;3.30;;
43146;SDS011;28752;48.266;7.402;2022-08-01T11:54:34;5.50;;;3.55;;
43146;SDS011;28752;48.266;7.402;2022-08-01T11:57:05;4.82;;;3.53;;
43146;SDS011;28752;48.266;7.402;2022-08-01T11:59:39;5.40;;;3.60;;
43146;SDS011;28752;48.266;7.402;2022-08-01T12:04:48;4.93;;;3.25;;
43146;SDS011;28752;48.266;7.402;2022-08-01T12:07:16;5.65;;;3.65;;
43146;SDS011;28752;48.266;7.402;2022-08-01T12:09:42;4.97;;;2.90;;
43146;SDS011;28752;48.266;7.402;2022-08-01T12:12:09;4.13;;;3.00;;
43146;SDS011;28752;48.266;7.402;2022-08-01T12:14:34;4.75;;;3.22;;
43146;SDS011;28752;48.266;7.402;2022-08-01T12:17:00;5.13;;;3.22;;
43146;SDS011;28752;48.266;7.402;2022-08-01T12:19:25;5.78;;;2.97;;
43146;SDS011;28752;48.266;7.402;2022-08-01T12:22:06;6.03;;;3.22;;
43146;SDS011;28752;48.266;7.402;2022-08-01T12:24:38;4.85;;;2.97;;
43146;SDS011;28752;48.266;7.402;2022-08-01T12:27:05;4.68;;;3.08;;
43146;SDS011;28752;48.266;7.402;2022-08-01T12:29:42;4.97;;;3.28;;
43146;SDS011;28752;48.266;7.402;2022-08-01T12:34:49;4.80;;;3.30;;
43146;SDS011;28752;48.266;7.402;2022-08-01T12:37:16;5.72;;;3.53;;
43146;SDS011;28752;48.266;7.402;2022-08-01T12:39:43;5.28;;;3.20;;
43146;SDS011;28752;48.266;7.402;2022-08-01T12:42:09;5.00;;;3.10;;
43146;SDS011;28752;48.266;7.402;2022-08-01T12:44:36;4.45;;;3.08;;
43146;SDS011;28752;48.266;7.402;2022-08-01T12:47:06;4.70;;;2.90;;
43146;SDS011;28752;48.266;7.402;2022-08-01T12:49:32;5.97;;;3.38;;
43146;SDS011;28752;48.266;7.402;2022-08-01T12:52:00;4.57;;;2.88;;
43146;SDS011;28752;48.266;7.402;2022-08-01T12:54:26;5.47;;;2.80;;
43146;SDS011;28752;48.266;7.402;2022-08-01T12:56:52;3.90;;;2.85;;
43146;SDS011;28752;48.266;7.402;2022-08-01T13:01:53;4.65;;;3.58;;
43146;SDS011;28752;48.266;7.402;2022-08-01T13:04:23;5.60;;;3.03;;
43146;SDS011;28752;48.266;7.402;2022-08-01T13:06:52;5.72;;;3.40;;
43146;SDS011;28752;48.266;7.402;2022-08-01T13:09:18;5.65;;;2.80;;
43146;SDS011;28752;48.266;7.402;2022-08-01T13:11:44;3.97;;;2.80;;
43146;SDS011;28752;48.266;7.402;2022-08-01T13:14:25;5.35;;;2.90;;
43146;SDS011;28752;48.266;7.402;2022-08-01T13:16:52;5.53;;;3.03;;
43146;SDS011;28752;48.266;7.402;2022-08-01T13:19:18;4.30;;;2.85;;
43146;SDS011;28752;48.266;7.402;2022-08-01T13:21:53;5.00;;;3.25;;
43146;SDS011;28752;48.266;7.402;2022-08-01T13:24:27;4.47;;;2.90;;
43146;SDS011;28752;48.266;7.402;2022-08-01T13:26:55;4.18;;;2.92;;
43146;SDS011;28752;48.266;7.402;2022-08-01T13:29:33;4.30;;;2.90;;
43146;SDS011;28752;48.266;7.402;2022-08-01T13:32:00;4.20;;;2.92;;
43146;SDS011;28752;48.266;7.402;2022-08-01T13:34:37;5.60;;;2.90;;
43146;SDS011;28752;48.266;7.402;2022-08-01T13:37:03;4.93;;;3.15;;
43146;SDS011;28752;48.266;7.402;2022-08-01T13:39:29;4.47;;;3.13;;
43146;SDS011;28752;48.266;7.402;2022-08-01T13:42:10;4.35;;;3.03;;
43146;SDS011;28752;48.266;7.402;2022-08-01T13:44:37;4.78;;;3.22;;
43146;SDS011;28752;48.266;7.402;2022-08-01T13:47:03;4.43;;;3.22;;
43146;SDS011;28752;48.266;7.402;2022-08-01T13:49:29;5.25;;;3.40;;
43146;SDS011;28752;48.266;7.402;2022-08-01T13:51:55;5.65;;;3.08;;
43146;SDS011;28752;48.266;7.402;2022-08-01T13:54:21;5.50;;;3.08;;
43146;SDS011;28752;48.266;7.402;2022-08-01T13:56:46;6.65;;;3.40;;
43146;SDS011;28752;48.266;7.402;2022-08-01T13:59:12;5.72;;;3.15;;
43146;SDS011;28752;48.266;7.402;2022-08-01T14:01:37;5.32;;;3.30;;
43146;SDS011;28752;48.266;7.402;2022-08-01T14:04:03;5.40;;;3.30;;
43146;SDS011;28752;48.266;7.402;2022-08-01T14:06:29;5.18;;;3.60;;
43146;SDS011;28752;48.266;7.402;2022-08-01T14:08:55;5.25;;;3.22;;
43146;SDS011;28752;48.266;7.402;2022-08-01T14:11:21;4.50;;;3.20;;
43146;SDS011;28752;48.266;7.402;2022-08-01T14:13:46;5.38;;;2.88;;
43146;SDS011;28752;48.266;7.402;2022-08-01T14:16:12;5.28;;;3.20;;
43146;SDS011;28752;48.266;7.402;2022-08-01T14:18:37;5.82;;;3.17;;
43146;SDS011;28752;48.266;7.402;2022-08-01T14:21:03;5.32;;;3.00;;
43146;SDS011;28752;48.266;7.402;2022-08-01T14:23:28;5.18;;;2.90;;
43146;SDS011;28752;48.266;7.402;2022-08-01T14:25:53;5.10;;;3.10;;
43146;SDS011;28752;48.266;7.402;2022-08-01T14:28:19;5.32;;;3.17;;
43146;SDS011;28752;48.266;7.402;2022-08-01T14:30:45;6.63;;;2.90;;
43146;SDS011;28752;48.266;7.402;2022-08-01T14:33:11;4.90;;;3.03;;
43146;SDS011;28752;48.266;7.402;2022-08-01T14:35:37;6.43;;;3.05;;
43146;SDS011;28752;48.266;7.402;2022-08-01T14:38:03;4.85;;;2.92;;
43146;SDS011;28752;48.266;7.402;2022-08-01T14:40:28;3.90;;;3.00;;
43146;SDS011;28752;48.266;7.402;2022-08-01T14:42:54;4.78;;;2.80;;
43146;SDS011;28752;48.266;7.402;2022-08-01T14:45:19;5.25;;;2.97;;
43146;SDS011;28752;48.266;7.402;2022-08-01T14:47:45;7.60;;;3.30;;
43146;SDS011;28752;48.266;7.402;2022-08-01T14:50:12;5.35;;;3.22;;
43146;SDS011;28752;48.266;7.402;2022-08-01T14:52:39;5.72;;;3.13;;
43146;SDS011;28752;48.266;7.402;2022-08-01T14:55:05;5.97;;;3.03;;
43146;SDS011;28752;48.266;7.402;2022-08-01T14:57:33;7.03;;;3.03;;
43146;SDS011;28752;48.266;7.402;2022-08-01T14:59:58;6.78;;;3.17;;
43146;SDS011;28752;48.266;7.402;2022-08-01T15:02:24;4.20;;;2.90;;
43146;SDS011;28752;48.266;7.402;2022-08-01T15:04:50;4.28;;;2.80;;
43146;SDS011;28752;48.266;7.402;2022-08-01T15:07:16;5.15;;;2.75;;
43146;SDS011;28752;48.266;7.402;2022-08-01T15:09:42;5.97;;;2.88;;
43146;SDS011;28752;48.266;7.402;2022-08-01T15:12:08;5.72;;;2.78;;
43146;SDS011;28752;48.266;7.402;2022-08-01T15:14:34;6.63;;;3.33;;
43146;SDS011;28752;48.266;7.402;2022-08-01T15:19:48;5.38;;;2.85;;
43146;SDS011;28752;48.266;7.402;2022-08-01T15:22:15;5.80;;;2.80;;
43146;SDS011;28752;48.266;7.402;2022-08-01T15:24:41;5.95;;;3.10;;
43146;SDS011;28752;48.266;7.402;2022-08-01T15:27:07;5.28;;;2.50;;
43146;SDS011;28752;48.266;7.402;2022-08-01T15:29:33;4.00;;;2.72;;
43146;SDS011;28752;48.266;7.402;2022-08-01T15:31:59;4.32;;;2.63;;
43146;SDS011;28752;48.266;7.402;2022-08-01T15:34:29;5.18;;;2.70;;
43146;SDS011;28752;48.266;7.402;2022-08-01T15:39:20;4.20;;;2.42;;
43146;SDS011;28752;48.266;7.402;2022-08-01T15:41:45;5.55;;;2.78;;
43146;SDS011;28752;48.266;7.402;2022-08-01T15:44:11;6.22;;;2.95;;
43146;SDS011;28752;48.266;7.402;2022-08-01T15:46:36;4.10;;;2.70;;